Time;durP1;ratioP1;P1;durP2;ratioP2;P2;SDS_P1;SDS_P2;PMS_P1;PMS_P2;Temp;Humidity;BMP_temperature;BMP_pressure;BME280_temperature;BME280_humidity;BME280_pressure;Samples;Min_cycle;Max_cycle;Signal;HPM_P1;HPM_P2
2023/05/29 00:01:49;;;;;;;8.75;4.40;;;18.80;46.60;;;;;;4996615;28;20041;-87
2023/05/29 00:04:15;;;;;;;7.78;4.20;;;18.80;47.40;;;;;;4991963;28;20030;-83
2023/05/29 00:06:44;;;;;;;7.65;3.97;;;18.70;46.70;;;;;;4996247;28;20706;-84
2023/05/29 00:09:14;;;;;;;6.30;4.45;;;18.70;46.80;;;;;;4993774;28;20050;-85
2023/05/29 00:11:40;;;;;;;5.90;3.97;;;18.70;46.90;;;;;;4989475;28;20389;-84
2023/05/29 00:14:06;;;;;;;5.38;4.07;;;18.60;46.80;;;;;;4990763;28;20156;-85
2023/05/29 00:16:38;;;;;;;8.45;4.13;;;18.60;46.90;;;;;;4993524;28;20033;-86
2023/05/29 00:19:08;;;;;;;7.90;4.45;;;18.60;47.00;;;;;;4997409;28;20069;-86
2023/05/29 00:21:35;;;;;;;6.25;4.57;;;18.50;46.80;;;;;;4988129;28;20389;-84
2023/05/29 00:24:01;;;;;;;7.38;4.43;;;18.50;47.00;;;;;;4991324;28;20352;-83
2023/05/29 00:26:28;;;;;;;6.40;4.25;;;18.50;47.10;;;;;;4988287;28;20312;-84
2023/05/29 00:28:58;;;;;;;7.05;4.22;;;18.40;47.00;;;;;;4997330;28;20042;-84
2023/05/29 00:31:28;;;;;;;6.13;4.63;;;18.40;47.10;;;;;;4992069;28;20424;-84
2023/05/29 00:33:54;;;;;;;5.75;4.30;;;18.40;47.20;;;;;;4995964;28;20441;-86
2023/05/29 00:36:21;;;;;;;6.30;4.15;;;18.30;47.00;;;;;;4949396;28;20101;-86
2023/05/29 00:38:47;;;;;;;7.53;4.40;;;18.30;47.10;;;;;;5000745;28;20038;-86
2023/05/29 00:41:15;;;;;;;7.25;4.40;;;18.20;47.10;;;;;;4990361;28;20034;-86
2023/05/29 00:43:42;;;;;;;6.40;4.03;;;18.20;47.10;;;;;;4985146;28;20092;-87
2023/05/29 00:46:12;;;;;;;8.35;4.07;;;18.20;47.20;;;;;;4986360;28;20379;-86
2023/05/29 00:48:42;;;;;;;8.93;4.10;;;18.20;47.30;;;;;;4998543;28;20536;-86
2023/05/29 00:51:11;;;;;;;8.02;4.43;;;18.10;47.20;;;;;;4992822;28;20527;-86
2023/05/29 00:53:38;;;;;;;8.10;4.68;;;18.00;47.00;;;;;;5000297;28;20397;-86
2023/05/29 00:56:05;;;;;;;8.63;4.35;;;18.00;47.10;;;;;;4987934;28;20086;-86
2023/05/29 00:58:31;;;;;;;8.85;4.05;;;18.00;47.20;;;;;;5001032;28;20022;-86
2023/05/29 01:00:58;;;;;;;8.18;3.38;;;17.90;47.10;;;;;;5006189;28;20354;-86
2023/05/29 01:03:36;;;;;;;8.63;3.72;;;17.80;47.00;;;;;;4999729;28;20442;-85
2023/05/29 01:06:23;;;;;;;5.03;3.35;;;17.80;47.10;;;;;;4940471;29;20142;-85
2023/05/29 01:08:55;;;;;;;8.90;3.85;;;17.70;46.90;;;;;;4992220;28;20536;-85
2023/05/29 01:12:00;;;;;;;4.43;3.05;;;17.70;47.00;;;;;;5001352;28;20880;-85
2023/05/29 01:14:36;;;;;;;9.65;3.90;;;17.60;46.90;;;;;;4989168;28;20029;-85
2023/05/29 01:17:45;;;;;;;6.38;2.95;;;17.60;46.90;;;;;;5000304;28;20041;-84
2023/05/29 01:20:34;;;;;;;5.50;2.92;;;17.50;46.90;;;;;;4981561;28;20073;-85
2023/05/29 01:23:37;;;;;;;6.90;3.40;;;17.50;46.80;;;;;;4995138;28;20037;-86
2023/05/29 01:26:09;;;;;;;5.90;3.15;;;17.40;46.80;;;;;;5009713;28;20301;-86
2023/05/29 01:28:47;;;;;;;10.02;3.38;;;17.40;46.70;;;;;;4987678;28;20494;-86
2023/05/29 01:31:16;;;;;;;6.50;3.10;;;17.30;46.60;;;;;;5000284;28;20553;-85
2023/05/29 01:33:42;;;;;;;8.27;2.97;;;17.20;46.40;;;;;;4999130;28;20376;-86
2023/05/29 01:36:08;;;;;;;5.80;2.88;;;17.20;46.50;;;;;;5003071;28;20112;-85
2023/05/29 01:38:35;;;;;;;6.97;3.80;;;17.20;46.50;;;;;;4999776;28;20034;-84
2023/05/29 01:41:02;;;;;;;6.65;3.45;;;17.20;46.60;;;;;;5015733;28;20032;-86
2023/05/29 01:43:32;;;;;;;6.38;2.42;;;17.10;46.50;;;;;;4999058;28;20121;-85
2023/05/29 01:45:59;;;;;;;9.52;3.40;;;17.10;46.50;;;;;;5001283;28;20041;-83
2023/05/29 01:48:27;;;;;;;5.70;2.63;;;17.10;46.60;;;;;;4990764;28;20850;-83
2023/05/29 01:50:57;;;;;;;4.97;2.85;;;17.00;46.40;;;;;;4999898;28;20021;-83
2023/05/29 01:53:25;;;;;;;6.40;2.78;;;16.90;46.30;;;;;;4997488;28;20037;-82
2023/05/29 01:56:00;;;;;;;6.15;2.55;;;16.90;46.30;;;;;;5005152;28;20030;-82
2023/05/29 01:58:29;;;;;;;5.18;2.53;;;16.80;46.80;;;;;;4987517;28;20560;-83
2023/05/29 02:00:56;;;;;;;9.07;3.38;;;16.90;46.40;;;;;;5004557;28;20248;-82
2023/05/29 02:03:23;;;;;;;6.43;2.00;;;16.80;46.20;;;;;;5000834;28;20046;-82
2023/05/29 02:05:52;;;;;;;5.20;2.30;;;16.70;46.10;;;;;;5006776;28;20921;-83
2023/05/29 02:08:18;;;;;;;6.30;2.33;;;16.60;45.90;;;;;;5005674;28;20104;-84
2023/05/29 02:10:47;;;;;;;6.20;2.85;;;16.70;46.10;;;;;;5000603;28;20538;-85
2023/05/29 02:13:14;;;;;;;7.25;3.22;;;16.60;46.00;;;;;;5003175;28;20045;-83
2023/05/29 02:15:40;;;;;;;7.35;2.67;;;16.60;46.00;;;;;;5003051;28;20033;-84
2023/05/29 02:18:13;;;;;;;4.82;2.35;;;16.50;45.80;;;;;;5001991;28;20284;-85
2023/05/29 02:20:41;;;;;;;4.97;2.25;;;16.50;45.80;;;;;;5001130;28;20278;-85
2023/05/29 02:23:10;;;;;;;5.57;2.25;;;16.50;45.90;;;;;;4998770;28;20104;-86
2023/05/29 02:25:37;;;;;;;5.07;2.83;;;16.40;45.80;;;;;;4987106;28;20565;-85
2023/05/29 02:28:12;;;;;;;6.63;2.35;;;16.40;45.80;;;;;;5004282;28;20145;-85
2023/05/29 02:30:39;;;;;;;6.47;2.92;;;16.40;45.80;;;;;;4997808;28;20114;-86
2023/05/29 02:33:06;;;;;;;6.82;2.50;;;16.30;45.70;;;;;;5006670;28;20053;-86
2023/05/29 02:35:37;;;;;;;4.50;2.10;;;16.30;45.70;;;;;;5001175;28;20038;-86
2023/05/29 02:38:06;;;;;;;6.45;2.30;;;16.20;45.50;;;;;;5007515;28;20147;-86
2023/05/29 02:40:35;;;;;;;8.05;2.28;;;16.20;45.50;;;;;;5006897;28;20281;-84
2023/05/29 02:43:13;;;;;;;4.90;2.15;;;16.10;45.30;;;;;;5007147;28;20034;-84
2023/05/29 02:45:39;;;;;;;3.88;1.98;;;16.10;45.30;;;;;;5003457;28;20045;-83
2023/05/29 02:48:06;;;;;;;4.65;2.47;;;16.10;45.40;;;;;;5006304;28;20136;-84
2023/05/29 02:50:32;;;;;;;5.43;2.20;;;16.00;45.20;;;;;;4998793;28;20121;-84
2023/05/29 02:52:58;;;;;;;12.32;3.40;;;16.00;45.30;;;;;;5004811;28;20030;-83
2023/05/29 02:55:25;;;;;;;7.43;2.42;;;16.00;45.30;;;;;;5006011;28;20037;-84
2023/05/29 02:57:55;;;;;;;9.82;3.17;;;16.00;45.30;;;;;;4989740;28;20053;-84
2023/05/29 03:00:22;;;;;;;4.97;2.40;;;15.90;45.20;;;;;;5007646;28;20056;-83
2023/05/29 03:02:52;;;;;;;6.15;2.33;;;15.90;45.20;;;;;;5008606;28;20044;-85
2023/05/29 03:05:24;;;;;;;5.75;2.38;;;15.80;45.00;;;;;;5008570;28;20033;-85
2023/05/29 03:07:53;;;;;;;9.23;3.10;;;15.80;45.10;;;;;;5009261;28;20054;-84
2023/05/29 03:10:20;;;;;;;7.10;2.90;;;15.70;44.90;;;;;;5007567;28;20022;-83
2023/05/29 03:12:51;;;;;;;4.90;2.22;;;15.70;45.00;;;;;;5009293;28;20108;-82
2023/05/29 03:15:20;;;;;;;7.13;2.22;;;15.60;44.90;;;;;;5006852;28;20034;-80
2023/05/29 03:17:51;;;;;;;7.43;2.67;;;15.60;45.00;;;;;;5007864;28;20560;-84
2023/05/29 03:20:26;;;;;;;5.32;2.13;;;15.50;45.40;;;;;;5005618;28;20065;-85
2023/05/29 03:22:55;;;;;;;5.85;2.30;;;15.50;44.80;;;;;;5002039;28;20053;-84
2023/05/29 03:25:21;;;;;;;5.80;2.60;;;15.40;44.80;;;;;;5002946;28;20096;-84
2023/05/29 03:27:47;;;;;;;5.53;2.40;;;15.40;44.80;;;;;;5005391;28;20408;-85
2023/05/29 03:30:20;;;;;;;5.05;2.17;;;15.40;44.80;;;;;;5001161;28;20041;-86
2023/05/29 03:32:49;;;;;;;6.88;2.85;;;15.40;44.80;;;;;;4991209;28;20033;-85
2023/05/29 03:35:16;;;;;;;4.03;2.08;;;15.30;44.70;;;;;;5016942;28;20045;-85
2023/05/29 03:37:44;;;;;;;5.88;2.80;;;15.30;44.70;;;;;;5008197;28;20421;-85
2023/05/29 03:40:11;;;;;;;5.20;2.35;;;15.30;44.80;;;;;;5007260;28;20034;-85
2023/05/29 03:42:37;;;;;;;8.73;3.35;;;15.20;44.60;;;;;;5007293;28;20100;-85
2023/05/29 03:45:05;;;;;;;4.13;2.50;;;15.20;44.70;;;;;;5006844;28;20058;-86
2023/05/29 03:47:33;;;;;;;5.20;2.55;;;15.20;44.70;;;;;;5014529;28;20065;-85
2023/05/29 03:50:04;;;;;;;4.82;2.20;;;15.10;44.60;;;;;;5002926;28;20073;-83
2023/05/29 03:52:37;;;;;;;4.65;2.20;;;15.10;44.60;;;;;;5005579;28;20416;-85
2023/05/29 03:55:12;;;;;;;7.35;2.50;;;15.10;44.60;;;;;;5008029;28;20050;-86
2023/05/29 03:57:48;;;;;;;5.22;2.50;;;15.00;44.50;;;;;;5007914;28;20042;-86
2023/05/29 04:00:16;;;;;;;11.05;2.92;;;15.00;44.50;;;;;;5005294;28;20450;-85
2023/05/29 04:02:45;;;;;;;7.45;2.85;;;15.00;44.50;;;;;;5006453;28;20071;-85
2023/05/29 04:05:13;;;;;;;5.35;2.03;;;15.00;44.50;;;;;;4990939;28;20057;-84
2023/05/29 04:07:41;;;;;;;5.68;2.30;;;14.90;44.30;;;;;;4990029;28;20444;-85
2023/05/29 04:10:08;;;;;;;6.55;2.25;;;14.90;44.40;;;;;;5014146;28;20372;-85
2023/05/29 04:12:53;;;;;;;4.95;2.22;;;14.90;44.40;;;;;;5007267;28;20041;-86
2023/05/29 04:15:25;;;;;;;4.47;1.80;;;14.90;44.40;;;;;;5005005;28;20473;-85
2023/05/29 04:17:54;;;;;;;8.15;2.45;;;14.90;44.50;;;;;;5015819;28;20034;-85
2023/05/29 04:20:33;;;;;;;3.95;1.83;;;14.80;44.30;;;;;;4990511;28;20046;-84
2023/05/29 04:22:59;;;;;;;6.15;2.75;;;14.80;44.40;;;;;;5008727;28;20109;-84
2023/05/29 04:25:25;;;;;;;8.00;2.15;;;14.80;44.40;;;;;;5003667;28;20097;-86
2023/05/29 04:27:54;;;;;;;7.45;1.98;;;14.80;44.50;;;;;;5007219;28;20050;-84
2023/05/29 04:30:22;;;;;;;5.43;1.85;;;14.70;44.30;;;;;;5004311;28;20038;-85
2023/05/29 04:32:48;;;;;;;3.35;2.08;;;14.70;44.40;;;;;;5009434;28;20065;-88
2023/05/29 04:35:15;;;;;;;7.20;3.10;;;14.70;44.30;;;;;;5005319;28;20115;-87
2023/05/29 04:37:53;;;;;;;6.40;2.25;;;14.70;44.40;;;;;;5004705;28;20134;-84
2023/05/29 04:40:20;;;;;;;5.00;2.25;;;14.70;44.40;;;;;;5004583;28;21010;-84
2023/05/29 04:42:47;;;;;;;6.07;2.53;;;14.70;44.40;;;;;;4991426;28;20078;-84
2023/05/29 04:45:14;;;;;;;8.23;2.75;;;14.70;44.40;;;;;;5006261;28;20524;-85
2023/05/29 04:47:43;;;;;;;5.05;2.33;;;14.70;44.40;;;;;;5001708;28;20046;-83
2023/05/29 04:50:16;;;;;;;5.28;2.22;;;14.70;44.40;;;;;;4995897;28;20755;-85
2023/05/29 04:52:43;;;;;;;4.43;2.60;;;14.70;44.40;;;;;;5003580;28;20057;-84
2023/05/29 04:55:14;;;;;;;4.90;2.38;;;14.70;44.40;;;;;;5002993;28;20308;-85
2023/05/29 04:57:46;;;;;;;3.95;1.83;;;14.70;44.40;;;;;;5011631;28;20553;-84
2023/05/29 05:00:15;;;;;;;6.93;2.08;;;14.70;44.40;;;;;;5000744;28;20046;-86
2023/05/29 05:02:44;;;;;;;5.47;2.67;;;14.70;44.40;;;;;;5000881;28;20037;-84
2023/05/29 05:05:17;;;;;;;5.63;2.50;;;14.80;44.60;;;;;;5002028;28;20456;-86
2023/05/29 05:07:44;;;;;;;6.68;2.15;;;14.80;44.60;;;;;;5000090;28;20056;-82
2023/05/29 05:10:13;;;;;;;5.75;2.80;;;14.80;44.50;;;;;;4999494;28;20041;-85
2023/05/29 05:12:40;;;;;;;5.15;2.17;;;14.80;44.50;;;;;;4995841;28;20113;-88
2023/05/29 05:15:07;;;;;;;8.18;3.25;;;14.90;44.70;;;;;;5001849;28;20030;-90
2023/05/29 05:17:40;;;;;;;5.63;2.05;;;14.90;44.70;;;;;;5005140;28;20038;-87
2023/05/29 05:20:08;;;;;;;7.05;2.78;;;14.90;44.60;;;;;;5004448;28;20037;-87
2023/05/29 05:22:35;;;;;;;8.05;2.92;;;15.00;44.80;;;;;;5005426;28;20478;-89
2023/05/29 05:25:01;;;;;;;6.88;2.42;;;15.00;44.70;;;;;;5004625;28;20128;-90
2023/05/29 05:27:28;;;;;;;4.63;2.00;;;15.00;44.70;;;;;;5004826;28;20056;-92
2023/05/29 05:29:54;;;;;;;5.90;1.90;;;15.10;44.80;;;;;;4999612;28;20059;-92
2023/05/29 05:32:20;;;;;;;6.85;2.67;;;15.10;44.70;;;;;;5004956;28;20029;-88
2023/05/29 05:34:55;;;;;;;5.85;2.20;;;15.20;44.80;;;;;;5000991;28;20121;-88
2023/05/29 05:37:23;;;;;;;6.90;2.42;;;15.30;44.90;;;;;;4980105;28;20038;-90
2023/05/29 05:39:53;;;;;;;4.60;2.50;;;15.40;45.00;;;;;;5002952;28;20451;-90
2023/05/29 05:42:20;;;;;;;6.55;3.53;;;15.50;45.10;;;;;;5006081;28;20418;-94
2023/05/29 05:44:54;;;;;;;6.93;2.58;;;15.60;45.10;;;;;;4995086;28;20037;-85
2023/05/29 05:47:20;;;;;;;4.60;2.22;;;15.80;45.30;;;;;;5000570;28;20137;-84
2023/05/29 05:49:51;;;;;;;6.53;3.03;;;15.90;45.30;;;;;;4991216;28;20060;-83
2023/05/29 05:52:18;;;;;;;6.32;2.65;;;16.10;45.50;;;;;;4995018;28;20606;-84
2023/05/29 05:54:44;;;;;;;8.02;2.60;;;16.20;45.40;;;;;;4995257;28;20595;-87
2023/05/29 05:57:15;;;;;;;10.02;2.85;;;16.40;45.60;;;;;;4997238;28;20131;-86
2023/05/29 05:59:44;;;;;;;4.78;2.70;;;16.60;45.70;;;;;;4998365;28;20038;-87
2023/05/29 06:02:11;;;;;;;5.53;2.05;;;16.90;45.90;;;;;;4998469;28;20037;-85
2023/05/29 06:04:40;;;;;;;5.78;2.85;;;17.10;46.00;;;;;;4998719;28;20052;-87
2023/05/29 06:07:06;;;;;;;5.22;2.10;;;17.30;46.40;;;;;;4996799;28;20043;-92
2023/05/29 06:09:41;;;;;;;7.25;1.90;;;17.50;46.90;;;;;;5002911;28;20460;-93
2023/05/29 06:12:08;;;;;;;9.00;3.50;;;17.80;48.00;;;;;;4998953;28;20037;-83
2023/05/29 06:14:45;;;;;;;11.80;3.28;;;18.10;48.40;;;;;;4994823;28;20153;-84
2023/05/29 06:17:15;;;;;;;11.10;3.45;;;18.50;47.70;;;;;;4996119;28;20568;-80
2023/05/29 06:19:41;;;;;;;5.25;2.50;;;18.60;46.80;;;;;;4991763;28;20374;-80
2023/05/29 06:22:15;;;;;;;9.35;3.38;;;18.80;46.40;;;;;;4992512;28;20037;-87
2023/05/29 06:24:44;;;;;;;11.25;2.88;;;19.10;46.20;;;;;;4978759;28;20033;-81
2023/05/29 06:27:10;;;;;;;9.90;2.25;;;19.30;45.60;;;;;;4995734;28;20054;-81
2023/05/29 06:29:36;;;;;;;10.38;3.08;;;19.60;45.30;;;;;;4988297;28;20592;-83
2023/05/29 06:32:05;;;;;;;11.80;3.78;;;19.80;44.80;;;;;;4978288;28;20393;-80
2023/05/29 06:34:35;;;;;;;5.55;2.70;;;20.10;44.60;;;;;;4973921;28;20049;-87
2023/05/29 06:37:02;;;;;;;7.10;2.42;;;20.30;44.20;;;;;;4996599;28;20489;-87
2023/05/29 06:39:31;;;;;;;5.05;2.20;;;20.60;44.10;;;;;;4995207;28;20049;-89
2023/05/29 06:41:58;;;;;;;9.65;3.10;;;20.90;43.90;;;;;;4997232;28;20041;-82
2023/05/29 06:44:24;;;;;;;11.80;3.50;;;21.10;43.60;;;;;;4990859;28;20119;-83
2023/05/29 06:46:50;;;;;;;7.40;2.90;;;21.40;43.40;;;;;;4995615;28;20061;-84
2023/05/29 06:49:20;;;;;;;7.00;2.42;;;21.60;43.10;;;;;;4992317;28;20056;-83
2023/05/29 06:51:46;;;;;;;8.35;2.40;;;21.90;43.00;;;;;;4993438;28;20041;-82
2023/05/29 06:54:28;;;;;;;6.73;2.53;;;22.10;42.70;;;;;;4995504;28;20627;-83
2023/05/29 06:56:55;;;;;;;7.43;2.95;;;22.30;42.50;;;;;;4996137;28;20287;-85
2023/05/29 06:59:21;;;;;;;6.78;2.67;;;22.50;42.40;;;;;;4991478;28;20336;-83
2023/05/29 07:01:47;;;;;;;7.22;3.05;;;22.80;42.30;;;;;;4994331;28;20422;-82
2023/05/29 07:04:14;;;;;;;6.60;2.65;;;23.00;42.10;;;;;;4994365;28;20034;-83
2023/05/29 07:06:40;;;;;;;6.03;2.60;;;23.20;41.90;;;;;;4994897;28;20026;-84
2023/05/29 07:09:07;;;;;;;7.03;2.38;;;23.50;41.90;;;;;;4995841;28;20353;-85
2023/05/29 07:11:34;;;;;;;9.25;3.22;;;23.70;41.70;;;;;;4997299;28;20030;-87
2023/05/29 07:14:03;;;;;;;6.35;2.85;;;24.00;41.60;;;;;;4991515;28;20099;-84
2023/05/29 07:16:32;;;;;;;5.28;2.45;;;24.30;41.50;;;;;;5010613;28;20366;-83
2023/05/29 07:19:23;;;;;;;6.00;2.83;;;24.60;41.30;;;;;;4976915;28;20133;-87
2023/05/29 07:21:56;;;;;;;8.05;2.80;;;24.90;41.10;;;;;;4997707;28;20029;-87
2023/05/29 07:24:24;;;;;;;5.85;2.47;;;24.90;40.90;;;;;;4979057;28;20061;-89
2023/05/29 07:26:50;;;;;;;3.83;1.98;;;24.80;40.90;;;;;;4996250;28;20637;-82
2023/05/29 07:29:17;;;;;;;6.50;2.25;;;24.50;40.60;;;;;;4989732;28;20760;-86
2023/05/29 07:31:44;;;;;;;7.75;2.85;;;24.30;40.40;;;;;;4978137;28;20513;-85
2023/05/29 07:34:17;;;;;;;5.35;2.65;;;24.20;40.30;;;;;;4988201;28;20065;-87
2023/05/29 07:36:58;;;;;;;7.10;2.78;;;24.30;40.10;;;;;;4989888;28;20029;-87
2023/05/29 07:39:24;;;;;;;6.57;2.65;;;24.50;39.10;;;;;;5002949;28;20026;-91
2023/05/29 07:41:56;;;;;;;6.78;2.78;;;24.50;39.10;;;;;;4993275;28;20034;-88
2023/05/29 07:44:26;;;;;;;8.82;2.65;;;24.50;39.10;;;;;;4994477;28;20399;-87
2023/05/29 07:46:55;;;;;;;3.88;2.45;;;24.70;38.70;;;;;;4988889;28;20080;-85
2023/05/29 07:49:36;;;;;;;5.20;2.17;;;25.00;38.40;;;;;;4997118;28;20045;-86
2023/05/29 07:52:03;;;;;;;8.15;2.30;;;25.30;38.00;;;;;;4999623;28;20065;-83
2023/05/29 07:54:34;;;;;;;4.97;2.00;;;25.40;37.70;;;;;;4997718;28;20752;-89
2023/05/29 07:57:09;;;;;;;5.45;2.80;;;25.60;37.60;;;;;;5013537;28;20038;-89
2023/05/29 07:59:36;;;;;;;6.95;2.53;;;25.60;37.40;;;;;;4997570;28;20114;-91
2023/05/29 08:02:04;;;;;;;6.00;1.98;;;25.60;37.30;;;;;;5006555;28;20523;-84
2023/05/29 08:04:45;;;;;;;7.68;2.50;;;25.50;37.20;;;;;;5004390;28;20045;-83
2023/05/29 08:07:11;;;;;;;5.28;2.10;;;25.20;37.30;;;;;;5005866;28;20037;-83
2023/05/29 08:09:40;;;;;;;5.95;2.25;;;24.90;37.40;;;;;;4999775;28;20057;-83
2023/05/29 08:12:15;;;;;;;5.05;2.42;;;24.60;37.20;;;;;;4997314;28;20354;-83
2023/05/29 08:14:43;;;;;;;3.65;2.17;;;24.20;36.80;;;;;;4986048;28;20423;-83
2023/05/29 08:17:09;;;;;;;4.28;2.60;;;24.00;36.60;;;;;;4997413;28;20121;-85
2023/05/29 08:19:55;;;;;;;4.22;2.88;;;23.70;36.30;;;;;;4932966;28;20040;-83
2023/05/29 08:22:42;;;;;;;2.90;2.25;;;23.30;35.80;;;;;;4995265;28;20044;-83
2023/05/29 08:25:09;;;;;;;8.25;3.13;;;23.10;35.70;;;;;;4995386;28;20030;-83
2023/05/29 08:27:41;;;;;;;7.65;2.72;;;22.90;35.50;;;;;;4984612;28;20078;-85
2023/05/29 08:30:11;;;;;;;7.55;3.22;;;22.70;35.30;;;;;;4996058;28;20042;-81
2023/05/29 08:32:40;;;;;;;6.97;3.30;;;22.60;35.20;;;;;;5005636;28;20046;-84
2023/05/29 08:35:08;;;;;;;3.65;2.20;;;22.60;35.20;;;;;;4995569;28;20031;-84
2023/05/29 08:37:39;;;;;;;4.45;2.40;;;22.60;35.20;;;;;;4991992;28;20538;-84
2023/05/29 08:40:09;;;;;;;5.18;2.10;;;22.80;35.40;;;;;;4989097;28;20088;-86
2023/05/29 08:42:58;;;;;;;8.43;2.35;;;22.90;35.40;;;;;;4984646;28;20468;-86
2023/05/29 08:45:24;;;;;;;6.32;2.50;;;23.10;35.50;;;;;;4995217;28;20030;-89
2023/05/29 08:48:02;;;;;;;3.40;1.98;;;23.20;35.60;;;;;;4999237;28;20244;-91
2023/05/29 08:50:28;;;;;;;3.92;2.05;;;23.40;35.80;;;;;;4999265;28;20041;-91
2023/05/29 08:52:57;;;;;;;5.18;2.38;;;23.50;35.70;;;;;;4990418;28;20049;-83
2023/05/29 08:55:30;;;;;;;6.35;2.38;;;23.60;35.70;;;;;;4995926;28;20501;-83
2023/05/29 08:57:59;;;;;;;6.53;2.58;;;23.80;35.90;;;;;;5003022;28;20060;-85
2023/05/29 09:00:28;;;;;;;5.07;2.22;;;23.90;35.90;;;;;;5005776;28;20076;-85
2023/05/29 09:03:00;;;;;;;5.60;2.05;;;24.00;35.80;;;;;;4989104;28;20084;-88
2023/05/29 09:05:30;;;;;;;7.28;2.60;;;24.10;35.70;;;;;;4994869;28;20038;-87
2023/05/29 09:07:56;;;;;;;4.95;2.15;;;23.90;35.10;;;;;;4979498;28;20348;-87
2023/05/29 09:10:25;;;;;;;5.72;2.00;;;23.70;34.90;;;;;;4994930;28;20144;-87
2023/05/29 09:12:52;;;;;;;7.47;2.28;;;23.50;34.90;;;;;;5014282;28;20384;-87
2023/05/29 09:15:19;;;;;;;6.38;2.10;;;23.50;35.10;;;;;;4997297;28;20041;-90
2023/05/29 09:17:59;;;;;;;8.07;2.88;;;23.50;35.10;;;;;;4994962;28;20132;-82
2023/05/29 09:20:31;;;;;;;3.80;2.10;;;23.60;35.10;;;;;;4990340;28;20468;-86
2023/05/29 09:23:04;;;;;;;2.08;1.67;;;23.80;35.40;;;;;;4989733;28;20026;-83
2023/05/29 09:25:32;;;;;;;4.03;2.13;;;23.80;35.30;;;;;;4994544;28;20133;-85
2023/05/29 09:28:07;;;;;;;4.22;2.10;;;23.90;35.40;;;;;;4984839;28;20035;-81
2023/05/29 09:30:48;;;;;;;4.30;1.95;;;24.00;35.50;;;;;;4996540;28;20045;-80
2023/05/29 09:33:17;;;;;;;3.95;2.00;;;24.10;35.50;;;;;;4995588;28;20030;-84
2023/05/29 09:35:44;;;;;;;5.88;2.08;;;24.20;35.60;;;;;;5012810;28;20117;-84
2023/05/29 09:38:11;;;;;;;4.53;2.22;;;24.30;35.60;;;;;;4995655;28;20449;-82
2023/05/29 09:40:40;;;;;;;3.58;1.73;;;24.40;35.70;;;;;;4983750;28;20045;-82
2023/05/29 09:43:17;;;;;;;5.25;2.55;;;24.50;35.70;;;;;;4988392;28;20858;-81
2023/05/29 09:45:50;;;;;;;2.90;1.75;;;24.60;35.80;;;;;;4989679;28;20140;-83
2023/05/29 09:48:24;;;;;;;6.32;2.20;;;24.70;35.90;;;;;;4988946;28;20414;-82
2023/05/29 09:50:50;;;;;;;9.18;2.53;;;24.80;35.90;;;;;;4997389;28;20490;-81
2023/05/29 09:53:21;;;;;;;4.38;2.20;;;24.80;35.90;;;;;;4998943;28;20030;-82
2023/05/29 09:55:59;;;;;;;6.82;2.40;;;24.90;36.00;;;;;;4998478;28;20292;-81
2023/05/29 09:58:35;;;;;;;4.05;2.10;;;25.00;36.00;;;;;;4996624;28;20030;-82
2023/05/29 10:01:01;;;;;;;5.85;2.65;;;25.00;35.70;;;;;;4997538;28;20053;-81
2023/05/29 10:03:29;;;;;;;5.03;2.20;;;24.90;35.50;;;;;;4992219;28;20033;-82
2023/05/29 10:05:59;;;;;;;3.60;2.20;;;24.70;35.20;;;;;;4997074;28;20041;-83
2023/05/29 10:08:30;;;;;;;9.15;3.38;;;24.50;35.00;;;;;;4996755;28;20045;-82
2023/05/29 10:11:15;;;;;;;5.70;2.80;;;24.50;35.20;;;;;;4995089;28;20036;-83
2023/05/29 10:13:48;;;;;;;6.78;2.78;;;24.40;35.10;;;;;;4996058;28;20464;-84
2023/05/29 10:16:15;;;;;;;6.90;2.63;;;24.20;35.00;;;;;;4999000;28;20029;-84
2023/05/29 10:18:49;;;;;;;3.42;2.20;;;24.10;35.00;;;;;;4997333;28;20065;-91
2023/05/29 10:21:16;;;;;;;5.28;1.95;;;24.20;35.20;;;;;;5006757;28;20029;-92
2023/05/29 10:23:47;;;;;;;8.18;2.30;;;24.20;35.10;;;;;;4992858;28;20061;-84
2023/05/29 10:26:21;;;;;;;6.03;2.42;;;24.20;35.00;;;;;;4999700;28;20037;-82
2023/05/29 10:29:27;;;;;;;2.97;2.03;;;24.10;34.80;;;;;;4984574;28;20611;-86
2023/05/29 10:32:18;;;;;;;4.82;2.40;;;24.10;34.90;;;;;;4987678;28;20046;-83
2023/05/29 10:35:13;;;;;;;6.97;2.60;;;24.00;35.20;;;;;;4987577;28;20148;-84
2023/05/29 10:38:16;;;;;;;5.03;3.00;;;24.10;35.30;;;;;;4995746;28;20022;-83
2023/05/29 10:40:45;;;;;;;6.22;2.03;;;24.20;35.30;;;;;;4990915;28;20096;-84
2023/05/29 10:43:32;;;;;;;6.28;2.65;;;24.30;35.50;;;;;;4999284;28;20048;-85
2023/05/29 10:46:02;;;;;;;4.47;2.33;;;24.20;35.20;;;;;;4997371;28;20115;-82
2023/05/29 10:48:38;;;;;;;3.83;2.13;;;24.20;35.30;;;;;;4995195;28;20050;-87
2023/05/29 10:51:07;;;;;;;6.32;2.38;;;24.30;35.50;;;;;;4990987;28;20037;-85
2023/05/29 10:53:34;;;;;;;4.43;1.98;;;24.20;35.30;;;;;;4995594;28;20469;-84
2023/05/29 10:56:05;;;;;;;4.80;2.10;;;24.10;35.10;;;;;;4995260;28;20048;-83
2023/05/29 10:58:32;;;;;;;7.57;2.25;;;24.00;35.10;;;;;;4993905;28;20137;-86
2023/05/29 11:01:08;;;;;;;7.30;1.95;;;23.90;35.00;;;;;;5001517;28;20029;-86
2023/05/29 11:03:37;;;;;;;4.53;2.20;;;23.90;35.10;;;;;;4995337;28;20037;-89
2023/05/29 11:06:17;;;;;;;4.55;1.88;;;23.90;35.20;;;;;;4992547;28;20430;-86
2023/05/29 11:08:47;;;;;;;4.30;1.67;;;24.00;35.30;;;;;;4991738;28;20518;-82
2023/05/29 11:11:36;;;;;;;4.43;2.22;;;24.20;35.40;;;;;;4991846;28;20045;-84
2023/05/29 11:14:16;;;;;;;4.88;1.85;;;24.50;35.70;;;;;;4989104;28;20073;-84
2023/05/29 11:16:42;;;;;;;4.82;1.75;;;24.70;35.80;;;;;;4991769;28;20033;-82
2023/05/29 11:19:10;;;;;;;6.78;2.10;;;25.00;36.10;;;;;;4990989;28;20096;-80
2023/05/29 11:22:06;;;;;;;4.55;2.05;;;25.20;35.90;;;;;;5010897;28;20087;-92
2023/05/29 11:24:38;;;;;;;8.18;2.33;;;25.50;35.70;;;;;;4998985;28;20029;-87
2023/05/29 11:27:07;;;;;;;6.25;2.28;;;25.70;35.60;;;;;;5000159;28;20040;-92
2023/05/29 11:29:35;;;;;;;5.22;1.95;;;25.90;35.40;;;;;;5013370;28;20088;-88
2023/05/29 11:32:09;;;;;;;5.07;2.72;;;25.90;35.20;;;;;;5007842;28;20037;-87
2023/05/29 11:34:41;;;;;;;6.82;1.90;;;25.80;35.00;;;;;;5000746;28;20616;-85
2023/05/29 11:37:11;;;;;;;4.78;2.20;;;25.70;35.00;;;;;;5000259;28;20038;-86
2023/05/29 11:39:39;;;;;;;6.85;1.50;;;25.60;35.00;;;;;;5001786;28;20041;-87
2023/05/29 11:42:08;;;;;;;4.60;2.28;;;25.50;35.00;;;;;;4994178;28;20479;-88
2023/05/29 11:44:39;;;;;;;10.85;2.53;;;25.40;35.10;;;;;;5010107;28;20037;-90
2023/05/29 11:47:08;;;;;;;5.95;1.98;;;25.30;35.20;;;;;;5010221;28;20058;-90
2023/05/29 11:49:43;;;;;;;3.72;1.48;;;25.30;35.20;;;;;;5000547;28;20038;-82
2023/05/29 11:52:10;;;;;;;3.90;1.90;;;25.20;35.20;;;;;;5003385;28;20049;-84
2023/05/29 11:54:41;;;;;;;6.20;2.45;;;25.20;35.20;;;;;;5002935;28;20119;-83
2023/05/29 11:57:10;;;;;;;5.18;2.03;;;25.20;35.30;;;;;;5010210;28;20114;-89
2023/05/29 11:59:38;;;;;;;6.90;2.05;;;25.10;35.30;;;;;;5012531;28;20041;-88
2023/05/29 12:02:06;;;;;;;8.00;2.35;;;25.10;35.30;;;;;;5002861;28;20102;-91
2023/05/29 12:04:32;;;;;;;3.75;2.10;;;25.10;35.50;;;;;;5001159;28;20319;-90
2023/05/29 12:07:18;;;;;;;3.80;1.88;;;25.20;35.70;;;;;;5002292;28;20481;-90
2023/05/29 12:09:44;;;;;;;2.90;2.00;;;25.30;36.00;;;;;;4996355;28;20050;-90
2023/05/29 12:12:10;;;;;;;7.53;2.33;;;25.60;35.90;;;;;;4996564;28;20433;-90
2023/05/29 12:14:37;;;;;;;4.30;1.85;;;25.70;35.60;;;;;;4998721;28;20120;-87
2023/05/29 12:17:06;;;;;;;5.95;2.08;;;25.80;35.40;;;;;;5005033;28;20141;-86
2023/05/29 12:19:32;;;;;;;6.60;2.03;;;25.80;35.30;;;;;;5002632;28;20045;-84
2023/05/29 12:22:05;;;;;;;7.15;2.15;;;25.80;35.30;;;;;;5012355;28;20038;-83
2023/05/29 12:24:54;;;;;;;4.28;2.28;;;25.90;35.30;;;;;;4984456;28;20041;-87
2023/05/29 12:27:21;;;;;;;5.88;2.00;;;25.90;35.30;;;;;;4999292;28;20030;-86
2023/05/29 12:29:47;;;;;;;6.00;1.98;;;25.90;35.20;;;;;;4996684;28;20045;-87
2023/05/29 12:32:16;;;;;;;12.02;2.05;;;26.00;35.20;;;;;;4995710;28;20030;-85
2023/05/29 12:34:42;;;;;;;6.80;2.13;;;26.00;35.10;;;;;;5001755;28;20042;-87
2023/05/29 12:37:13;;;;;;;4.13;1.98;;;26.00;35.00;;;;;;4982253;28;20034;-86
2023/05/29 12:39:40;;;;;;;3.13;1.67;;;26.10;35.00;;;;;;4999520;28;20050;-88
2023/05/29 12:42:07;;;;;;;4.63;1.80;;;26.10;34.90;;;;;;5002568;28;20037;-84
2023/05/29 12:44:38;;;;;;;5.65;1.80;;;26.10;34.90;;;;;;5000434;28;20042;-85
2023/05/29 12:47:05;;;;;;;4.75;1.80;;;26.10;35.40;;;;;;5008150;28;20103;-89
2023/05/29 12:49:36;;;;;;;4.93;1.80;;;26.10;34.80;;;;;;5000199;28;20045;-91
2023/05/29 12:52:10;;;;;;;6.90;2.13;;;26.10;34.80;;;;;;5001959;28;20034;-85
2023/05/29 12:54:36;;;;;;;4.05;2.10;;;26.20;34.90;;;;;;5000352;28;20048;-88
2023/05/29 12:57:07;;;;;;;5.07;1.67;;;26.30;34.80;;;;;;5003463;28;20485;-87
2023/05/29 12:59:45;;;;;;;4.07;1.55;;;26.30;34.70;;;;;;5013890;28;20128;-85
2023/05/29 13:02:34;;;;;;;4.85;2.00;;;26.40;34.70;;;;;;4950912;28;20043;-88
2023/05/29 13:05:03;;;;;;;4.07;1.83;;;26.40;34.60;;;;;;4995437;28;20412;-87